createdAt,value
2022-08-02T00:01:37.094Z,4.78
2022-08-02T00:05:59.388Z,4.13
2022-08-02T00:10:21.673Z,4.43
2022-08-02T00:14:43.914Z,4.60
2022-08-02T00:19:05.915Z,4.25
2022-08-02T00:23:27.614Z,4.70
2022-08-02T00:27:49.773Z,4.38
2022-08-02T00:32:12.364Z,4.18
2022-08-02T00:36:34.693Z,4.10
2022-08-02T00:40:58.126Z,4.75
2022-08-02T00:45:20.153Z,4.20
2022-08-02T00:50:02.293Z,4.03
2022-08-02T00:54:24.635Z,4.80
2022-08-02T00:58:46.493Z,4.97
2022-08-02T01:03:08.733Z,3.78
2022-08-02T01:07:30.833Z,4.13
2022-08-02T01:11:52.813Z,4.10
2022-08-02T01:16:23.573Z,4.32
2022-08-02T01:21:22.714Z,4.20
2022-08-02T01:25:59.436Z,4.60
2022-08-02T01:30:22.153Z,5.03
2022-08-02T01:34:53.894Z,5.85
2022-08-02T01:39:26.648Z,4.97
2022-08-02T01:44:03.194Z,5.55
2022-08-02T01:48:28.892Z,5.78
2022-08-02T01:52:55.035Z,7.72
2022-08-02T01:57:18.772Z,7.72
2022-08-02T02:01:42.011Z,6.28
2022-08-02T02:06:07.632Z,5.68
2022-08-02T02:10:34.052Z,6.68
2022-08-02T02:14:57.193Z,6.28
2022-08-02T02:19:20.775Z,5.53
2022-08-02T02:23:43.813Z,5.70
2022-08-02T02:28:16.673Z,5.63
2022-08-02T02:32:41.198Z,6.35
2022-08-02T02:37:08.675Z,8.95
2022-08-02T02:41:30.613Z,5.80
2022-08-02T02:45:53.333Z,6.32
2022-08-02T02:50:18.112Z,6.25
2022-08-02T02:54:40.413Z,7.05
2022-08-02T02:59:03.666Z,6.60
2022-08-02T03:03:25.953Z,6.47
2022-08-02T03:07:47.853Z,8.07
2022-08-02T03:12:11.164Z,6.65
2022-08-02T03:16:33.653Z,7.45
2022-08-02T03:21:07.132Z,7.13
2022-08-02T03:25:28.834Z,7.68
2022-08-02T03:29:50.833Z,7.55
2022-08-02T03:34:12.981Z,10.88
2022-08-02T03:38:36.713Z,8.18
2022-08-02T03:42:59.474Z,8.32
2022-08-02T03:47:23.393Z,7.65
2022-08-02T03:51:46.753Z,7.95
2022-08-02T03:56:09.793Z,7.43
2022-08-02T04:00:32.110Z,7.95
2022-08-02T04:04:54.173Z,7.72
2022-08-02T04:09:16.114Z,7.43
2022-08-02T04:13:39.015Z,6.05
2022-08-02T04:18:04.122Z,4.68
2022-08-02T04:22:45.995Z,3.65
2022-08-02T04:27:48.870Z,3.00
2022-08-02T04:31:54.233Z,3.00
2022-08-02T04:36:16.393Z,3.17
2022-08-02T04:40:56.233Z,3.83
2022-08-02T04:45:19.354Z,2.95
2022-08-02T04:49:41.687Z,3.13
2022-08-02T04:54:09.295Z,2.65
2022-08-02T04:58:40.892Z,2.83
2022-08-02T05:03:03.313Z,2.28
2022-08-02T05:07:25.195Z,2.75
2022-08-02T05:11:54.899Z,2.80
2022-08-02T05:16:17.734Z,2.83
2022-08-02T05:20:39.994Z,2.70
2022-08-02T05:25:02.054Z,2.67
2022-08-02T05:29:24.174Z,3.03
2022-08-02T05:33:46.196Z,3.25
2022-08-02T05:38:10.121Z,3.55
2022-08-02T05:42:32.676Z,3.35
2022-08-02T05:46:54.693Z,3.25
2022-08-02T05:51:32.512Z,2.63
2022-08-02T05:56:42.635Z,3.10
2022-08-02T06:01:05.734Z,3.03
2022-08-02T06:05:32.969Z,3.28
2022-08-02T06:09:55.053Z,3.00
2022-08-02T06:14:18.133Z,3.15
2022-08-02T06:18:43.414Z,3.08
2022-08-02T06:23:13.302Z,3.63
2022-08-02T06:27:36.095Z,3.08
2022-08-02T06:31:59.256Z,2.95
2022-08-02T06:36:49.094Z,3.17
2022-08-02T06:41:15.034Z,3.22
2022-08-02T06:45:37.533Z,3.15
2022-08-02T06:50:00.020Z,3.10
2022-08-02T06:54:22.174Z,2.83
2022-08-02T06:58:44.196Z,3.20
2022-08-02T07:03:07.115Z,3.90
2022-08-02T07:07:29.514Z,3.15
2022-08-02T07:11:51.573Z,2.70
2022-08-02T07:16:13.613Z,2.50
2022-08-02T07:20:35.657Z,3.53
2022-08-02T07:24:59.696Z,3.00
2022-08-02T07:29:21.935Z,3.05
2022-08-02T07:33:47.078Z,2.92
2022-08-02T07:38:10.474Z,3.03
2022-08-02T07:42:32.393Z,2.72
2022-08-02T07:46:54.254Z,2.85
2022-08-02T07:51:17.430Z,2.60
2022-08-02T07:55:40.839Z,2.60
2022-08-02T08:00:05.233Z,2.30
2022-08-02T08:04:33.654Z,2.58
2022-08-02T08:08:55.979Z,3.20
2022-08-02T08:13:18.174Z,2.08
2022-08-02T08:17:40.349Z,2.00
2022-08-02T08:22:03.462Z,1.98
2022-08-02T08:26:26.874Z,2.08
2022-08-02T08:30:49.353Z,2.95
2022-08-02T08:35:11.774Z,2.20
2022-08-02T08:39:33.777Z,1.95
2022-08-02T08:44:15.618Z,2.05
2022-08-02T08:48:43.617Z,2.35
2022-08-02T08:53:12.202Z,2.10
2022-08-02T08:57:40.196Z,2.20
2022-08-02T09:02:16.865Z,1.92
2022-08-02T09:06:44.905Z,1.73
2022-08-02T09:11:23.717Z,2.03
2022-08-02T09:15:56.594Z,1.73
2022-08-02T09:20:18.874Z,2.28
2022-08-02T09:24:50.533Z,1.42
2022-08-02T09:29:12.545Z,1.35
2022-08-02T09:33:35.353Z,1.40
2022-08-02T09:38:13.066Z,1.45
2022-08-02T09:42:34.973Z,1.35
2022-08-02T09:46:57.181Z,1.15
2022-08-02T09:51:22.166Z,1.15
2022-08-02T09:55:44.075Z,1.40
2022-08-02T10:00:14.888Z,1.35
2022-08-02T10:04:52.552Z,1.40
2022-08-02T10:09:16.516Z,1.52
2022-08-02T10:13:39.054Z,1.55
2022-08-02T10:18:01.275Z,1.60
2022-08-02T10:22:25.838Z,1.30
2022-08-02T10:26:49.593Z,1.45
2022-08-02T10:31:12.632Z,1.23
2022-08-02T10:35:39.735Z,2.30
2022-08-02T10:40:02.245Z,1.88
2022-08-02T10:44:36.315Z,1.10
2022-08-02T10:54:10.072Z,1.15
2022-08-02T10:58:34.793Z,1.55
2022-08-02T11:02:56.734Z,1.20
2022-08-02T11:07:31.012Z,1.40
2022-08-02T11:12:12.476Z,1.52
2022-08-02T11:16:56.533Z,1.80
2022-08-02T11:21:33.755Z,1.50
2022-08-02T11:26:03.698Z,1.38
2022-08-02T11:30:32.773Z,1.50
2022-08-02T11:34:55.712Z,1.48
2022-08-02T11:39:22.916Z,1.30
2022-08-02T11:43:45.774Z,1.70
2022-08-02T11:48:07.674Z,1.60
2022-08-02T11:52:35.054Z,1.48
2022-08-02T11:57:19.868Z,1.35
2022-08-02T12:01:46.012Z,2.00
2022-08-02T12:06:16.406Z,1.83
2022-08-02T12:10:49.013Z,1.67
2022-08-02T12:15:11.153Z,2.25
2022-08-02T12:19:33.653Z,1.50
2022-08-02T12:23:59.454Z,1.40
2022-08-02T12:28:26.818Z,1.70
2022-08-02T12:32:49.072Z,1.70
2022-08-02T12:37:11.513Z,1.88
2022-08-02T12:41:33.693Z,2.10
2022-08-02T12:45:57.615Z,2.00
2022-08-02T12:50:43.632Z,1.45
2022-08-02T12:55:22.713Z,1.55
2022-08-02T12:59:51.174Z,1.48
2022-08-02T13:04:16.393Z,1.50
2022-08-02T13:08:39.696Z,1.90
2022-08-02T13:13:02.513Z,1.55
2022-08-02T13:17:24.612Z,2.03
2022-08-02T13:22:01.979Z,1.65
2022-08-02T13:26:31.033Z,2.00
2022-08-02T13:30:53.792Z,1.83
2022-08-02T13:35:18.171Z,1.80
2022-08-02T13:39:40.794Z,1.73
2022-08-02T13:44:10.078Z,1.98
2022-08-02T13:48:34.054Z,1.77
2022-08-02T13:52:55.919Z,1.90
2022-08-02T13:57:18.133Z,1.98
2022-08-02T14:01:40.768Z,1.73
2022-08-02T14:06:03.014Z,1.80
2022-08-02T14:10:30.501Z,1.65
2022-08-02T14:14:52.893Z,1.70
2022-08-02T14:19:15.616Z,2.10
2022-08-02T14:23:50.099Z,1.50
2022-08-02T14:28:13.083Z,2.03
2022-08-02T14:32:34.954Z,2.13
2022-08-02T14:36:57.553Z,1.80
2022-08-02T14:41:19.853Z,1.95
2022-08-02T14:45:41.880Z,1.90
2022-08-02T14:50:05.007Z,1.75
2022-08-02T14:54:30.911Z,1.55
2022-08-02T14:58:53.401Z,3.63
2022-08-02T15:03:15.265Z,2.30
2022-08-02T15:07:42.537Z,2.50
2022-08-02T15:12:07.175Z,1.80
2022-08-02T15:16:54.854Z,1.75
2022-08-02T15:21:40.166Z,1.77
2022-08-02T15:25:54.633Z,1.90
2022-08-02T15:30:16.741Z,1.90
2022-08-02T15:34:38.967Z,1.70
2022-08-02T15:39:00.872Z,1.60
2022-08-02T15:43:23.034Z,1.73
2022-08-02T15:47:50.299Z,2.05
2022-08-02T15:52:13.167Z,2.20
2022-08-02T15:56:35.615Z,2.10
2022-08-02T16:00:57.378Z,1.90
2022-08-02T16:05:20.192Z,1.92
2022-08-02T16:09:42.513Z,2.30
2022-08-02T16:14:04.711Z,1.90
2022-08-02T16:18:26.513Z,1.92
2022-08-02T16:22:48.653Z,2.03
2022-08-02T16:27:10.978Z,3.53
2022-08-02T16:31:33.215Z,2.80
2022-08-02T16:35:55.243Z,2.10
2022-08-02T16:40:17.193Z,2.50
2022-08-02T16:44:39.074Z,2.17
2022-08-02T16:50:07.276Z,1.80
2022-08-02T16:53:59.901Z,2.03
2022-08-02T16:58:22.693Z,7.00
2022-08-02T17:02:47.051Z,2.05
2022-08-02T17:08:06.303Z,1.90
2022-08-02T17:11:53.053Z,1.75
2022-08-02T17:16:20.671Z,1.75
2022-08-02T17:20:48.553Z,1.80
2022-08-02T17:25:13.633Z,1.83
2022-08-02T17:29:37.013Z,1.92
2022-08-02T17:34:04.542Z,3.28
2022-08-02T17:38:27.601Z,2.00
2022-08-02T17:42:49.633Z,1.80
2022-08-02T17:47:11.564Z,1.92
2022-08-02T17:52:48.012Z,2.55
2022-08-02T17:56:16.514Z,2.60
2022-08-02T18:00:38.891Z,1.98
2022-08-02T18:05:01.901Z,2.28
2022-08-02T18:09:27.173Z,2.78
2022-08-02T18:13:53.291Z,3.28
2022-08-02T18:18:19.299Z,4.47
2022-08-02T18:22:55.460Z,2.47
2022-08-02T18:27:18.053Z,2.50
2022-08-02T18:31:50.992Z,1.90
2022-08-02T18:36:24.384Z,1.98
2022-08-02T18:40:50.783Z,2.47
2022-08-02T18:45:19.990Z,2.03
2022-08-02T18:49:46.504Z,7.40
2022-08-02T18:54:10.322Z,2.72
2022-08-02T18:58:33.105Z,1.83
2022-08-02T19:02:55.373Z,1.80
2022-08-02T19:07:18.665Z,2.10
2022-08-02T19:11:48.245Z,1.88
2022-08-02T19:16:12.454Z,2.20
2022-08-02T19:20:35.462Z,2.10
2022-08-02T19:25:01.808Z,2.67
2022-08-02T19:29:42.343Z,2.63
2022-08-02T19:34:07.956Z,2.70
2022-08-02T19:38:30.257Z,2.55
2022-08-02T19:44:27.559Z,2.75
2022-08-02T19:47:39.344Z,3.45
2022-08-02T19:52:01.715Z,2.97
2022-08-02T19:56:43.454Z,3.10
2022-08-02T20:01:05.914Z,3.33
2022-08-02T20:05:28.145Z,3.35
2022-08-02T20:09:53.214Z,2.78
2022-08-02T20:14:14.914Z,3.15
2022-08-02T20:18:37.173Z,2.95
2022-08-02T20:23:32.680Z,3.20
2022-08-02T20:27:56.213Z,3.00
2022-08-02T20:32:24.573Z,3.60
2022-08-02T20:36:46.493Z,3.15
2022-08-02T20:41:21.671Z,3.70
2022-08-02T20:45:44.306Z,3.38
2022-08-02T20:50:31.305Z,3.88
2022-08-02T20:54:53.856Z,3.70
2022-08-02T20:59:16.249Z,4.35
2022-08-02T21:03:39.078Z,3.75
2022-08-02T21:08:04.797Z,3.95
2022-08-02T21:12:29.943Z,4.22
2022-08-02T21:16:52.395Z,4.20
2022-08-02T21:21:14.518Z,4.60
2022-08-02T21:25:50.727Z,4.38
2022-08-02T21:30:19.806Z,4.28
2022-08-02T21:34:46.214Z,4.45
2022-08-02T21:39:11.397Z,3.97
2022-08-02T21:43:35.336Z,4.40
2022-08-02T21:48:01.615Z,5.18
2022-08-02T21:52:26.009Z,4.93
2022-08-02T21:56:53.267Z,4.78
2022-08-02T22:01:15.274Z,4.57
2022-08-02T22:05:39.555Z,4.78
2022-08-02T22:10:09.685Z,4.97
2022-08-02T22:14:31.754Z,4.93
2022-08-02T22:18:54.574Z,5.22
2022-08-02T22:23:22.457Z,4.53
2022-08-02T22:28:35.895Z,4.90
2022-08-02T22:33:00.034Z,5.22
2022-08-02T22:38:14.632Z,4.50
2022-08-02T22:42:06.127Z,4.75
2022-08-02T22:46:29.494Z,4.55
2022-08-02T22:50:53.834Z,5.20
2022-08-02T22:55:16.051Z,4.43
2022-08-02T22:59:39.971Z,4.63
2022-08-02T23:04:02.418Z,4.68
2022-08-02T23:08:24.814Z,4.38
2022-08-02T23:12:46.734Z,4.45
2022-08-02T23:17:27.674Z,4.35
2022-08-02T23:22:02.844Z,4.90
2022-08-02T23:26:25.433Z,4.82
2022-08-02T23:30:47.474Z,4.80
2022-08-02T23:35:10.076Z,4.47
2022-08-02T23:39:39.873Z,4.93
2022-08-02T23:44:16.083Z,4.85
2022-08-02T23:48:38.115Z,4.57
2022-08-02T23:53:00.316Z,4.65
2022-08-02T23:57:22.714Z,4.90
